Time;durP1;ratioP1;P1;durP2;ratioP2;P2;SDS_P1;SDS_P2;PMS_P1;PMS_P2;Temp;Humidity;BMP_temperature;BMP_pressure;BME280_temperature;BME280_humidity;BME280_pressure;Samples;Min_cycle;Max_cycle;Signal;HPM_P1;HPM_P2
2020/12/23 00:01:18;;;;;;;22.58;21.67;;;;;;;10.34;84.89;99723.59;5059097;28;20412;-78
2020/12/23 00:03:44;;;;;;;22.38;21.48;;;;;;;10.31;84.99;99734.22;5057894;28;20107;-78
2020/12/23 00:06:11;;;;;;;21.80;20.90;;;;;;;10.25;85.04;99740.59;5055978;28;20041;-77
2020/12/23 00:08:38;;;;;;;23.75;22.80;;;;;;;10.22;84.68;99752.97;5054188;28;20064;-76
2020/12/23 00:11:04;;;;;;;23.15;22.25;;;;;;;10.17;84.91;99760.13;5056309;28;20057;-76
2020/12/23 00:13:32;;;;;;;20.42;19.63;;;;;;;10.13;84.88;99750.72;5053862;28;20476;-78
2020/12/23 00:15:58;;;;;;;22.45;21.55;;;;;;;10.07;84.95;99747.44;5051555;28;20178;-75
2020/12/23 00:18:24;;;;;;;21.77;20.88;;;;;;;10.02;84.75;99753.81;5051327;28;20045;-75
2020/12/23 00:20:50;;;;;;;23.45;22.55;;;;;;;9.98;84.74;99762.69;5051812;28;20078;-73
2020/12/23 00:23:16;;;;;;;23.02;22.13;;;;;;;9.92;84.61;99765.59;5051374;28;20059;-74
2020/12/23 00:25:44;;;;;;;22.17;21.27;;;;;;;9.84;84.67;99773.78;5051954;28;20049;-75
2020/12/23 00:28:12;;;;;;;21.10;20.25;;;;;;;9.80;84.57;99769.59;5052257;28;20049;-76
2020/12/23 00:30:38;;;;;;;23.38;22.48;;;;;;;9.77;84.76;99775.78;5053547;28;20051;-75
2020/12/23 00:33:04;;;;;;;22.77;21.88;;;;;;;9.75;84.59;99774.16;5054064;28;20136;-77
2020/12/23 00:35:31;;;;;;;23.00;22.10;;;;;;;9.72;84.72;99776.91;5053539;28;20048;-74
2020/12/23 00:37:57;;;;;;;22.50;21.60;;;;;;;9.69;84.53;99782.28;5054670;28;20485;-76
2020/12/23 00:40:23;;;;;;;22.10;21.20;;;;;;;9.63;84.66;99799.09;5056262;28;20051;-77
2020/12/23 00:42:50;;;;;;;22.70;21.80;;;;;;;9.57;84.64;99801.94;5054101;28;20067;-76
2020/12/23 00:45:16;;;;;;;23.73;22.77;;;;;;;9.52;84.74;99811.75;5053700;28;20096;-75
2020/12/23 00:47:42;;;;;;;21.63;20.73;;;;;;;9.50;84.63;99818.81;5055355;28;20120;-76
2020/12/23 00:50:08;;;;;;;21.92;21.02;;;;;;;9.44;84.48;99812.09;5053557;28;20136;-75
2020/12/23 00:52:34;;;;;;;20.98;20.13;;;;;;;9.40;84.72;99804.44;5051733;28;20045;-76
2020/12/23 00:55:00;;;;;;;22.15;21.25;;;;;;;9.37;84.66;99820.22;5053254;28;20102;-75
2020/12/23 00:57:26;;;;;;;21.98;21.08;;;;;;;9.34;84.49;99826.44;5054299;28;20049;-76
2020/12/23 00:59:53;;;;;;;23.27;22.38;;;;;;;9.32;84.72;99830.88;5051443;28;20095;-75
2020/12/23 01:02:19;;;;;;;23.42;22.52;;;;;;;9.31;84.71;99834.41;5051369;28;20170;-75
2020/12/23 01:04:45;;;;;;;23.10;22.20;;;;;;;9.30;84.64;99848.41;5051704;28;20045;-76
2020/12/23 01:07:11;;;;;;;23.83;22.85;;;;;;;9.29;84.70;99841.47;5052028;28;20157;-76
2020/12/23 01:09:37;;;;;;;22.40;21.50;;;;;;;9.28;84.64;99847.63;5050779;28;20137;-76
2020/12/23 01:12:03;;;;;;;22.50;21.60;;;;;;;9.24;84.50;99845.19;5048779;28;20045;-75
2020/12/23 01:14:30;;;;;;;23.50;22.60;;;;;;;9.17;84.55;99847.19;5034454;28;20055;-75
2020/12/23 01:16:56;;;;;;;21.45;20.55;;;;;;;9.12;84.57;99843.88;5035584;28;20080;-75
2020/12/23 01:19:22;;;;;;;23.13;22.23;;;;;;;9.10;84.46;99840.50;5036895;28;20049;-75
2020/12/23 01:21:48;;;;;;;22.95;22.05;;;;;;;9.03;84.56;99842.50;5036985;28;20041;-76
2020/12/23 01:24:14;;;;;;;22.55;21.65;;;;;;;9.00;84.62;99844.38;5043421;28;20041;-75
2020/12/23 01:26:41;;;;;;;22.13;21.23;;;;;;;8.98;84.50;99846.19;5039971;28;20100;-74
2020/12/23 01:29:07;;;;;;;22.25;21.35;;;;;;;8.98;84.51;99851.44;5035915;28;20051;-67
2020/12/23 01:31:33;;;;;;;23.27;22.38;;;;;;;8.97;84.50;99850.59;5034932;28;20071;-68
2020/12/23 01:34:00;;;;;;;20.90;20.05;;;;;;;8.97;84.66;99842.75;5035128;28;20099;-67
2020/12/23 01:36:26;;;;;;;20.05;19.25;;;;;;;8.94;84.52;99845.44;5034385;28;20095;-68
2020/12/23 01:38:52;;;;;;;21.48;20.58;;;;;;;8.88;84.38;99844.84;5034476;28;20046;-68
2020/12/23 01:41:18;;;;;;;23.42;22.52;;;;;;;8.80;84.50;99843.38;5034406;28;20049;-68
2020/12/23 01:43:52;;;;;;;22.75;21.85;;;;;;;8.74;84.62;99840.97;5034655;28;20050;-68
2020/12/23 01:46:19;;;;;;;20.60;19.80;;;;;;;8.68;84.45;99842.97;5034417;28;20518;-68
2020/12/23 01:48:45;;;;;;;22.13;21.23;;;;;;;8.64;84.58;99844.84;5034652;28;20042;-67
2020/12/23 01:51:12;;;;;;;23.05;22.15;;;;;;;8.59;84.51;99853.75;5034527;28;20144;-68
2020/12/23 01:53:38;;;;;;;21.23;20.33;;;;;;;8.52;84.56;99848.75;5034953;28;20042;-68
2020/12/23 01:56:06;;;;;;;24.08;23.08;;;;;;;8.49;84.66;99866.28;5034372;28;20050;-68
2020/12/23 01:58:32;;;;;;;23.17;22.27;;;;;;;8.47;84.61;99862.88;5034589;28;20056;-67
2020/12/23 02:00:59;;;;;;;20.77;19.95;;;;;;;8.45;84.56;99851.63;5034067;28;20508;-68
2020/12/23 02:03:25;;;;;;;20.35;19.55;;;;;;;8.43;84.50;99845.63;5036631;28;20485;-67
2020/12/23 02:05:51;;;;;;;21.35;20.45;;;;;;;8.39;84.55;99851.88;5034314;28;20176;-67
2020/12/23 02:08:18;;;;;;;22.92;22.02;;;;;;;8.39;84.75;99852.72;5034649;28;20050;-67
2020/12/23 02:10:48;;;;;;;22.17;21.27;;;;;;;8.36;84.53;99844.16;5034243;28;20327;-67
2020/12/23 02:13:14;;;;;;;21.63;20.73;;;;;;;8.31;84.63;99848.63;5034325;28;20102;-68
2020/12/23 02:15:40;;;;;;;23.27;22.38;;;;;;;8.31;84.61;99857.31;5033953;28;20046;-68
2020/12/23 02:18:06;;;;;;;23.65;22.75;;;;;;;8.32;84.74;99855.56;5033999;28;20497;-67
2020/12/23 02:20:32;;;;;;;22.35;21.45;;;;;;;8.31;84.56;99865.16;5033744;28;20132;-66
2020/12/23 02:22:59;;;;;;;20.45;19.65;;;;;;;8.29;84.60;99872.19;5035191;28;20047;-67
2020/12/23 02:25:25;;;;;;;21.20;20.30;;;;;;;8.29;84.64;99884.38;5033818;28;20413;-68
2020/12/23 02:27:52;;;;;;;22.92;22.02;;;;;;;8.27;84.63;99887.91;5034961;28;20469;-68
2020/12/23 02:30:18;;;;;;;21.42;20.55;;;;;;;8.25;84.66;99886.25;5034663;28;20425;-68
2020/12/23 02:32:44;;;;;;;22.63;21.73;;;;;;;8.24;84.66;99890.63;5034967;28;20103;-68
2020/12/23 02:35:11;;;;;;;23.95;22.98;;;;;;;8.24;84.61;99892.41;5034928;28;20046;-68
2020/12/23 02:37:37;;;;;;;22.70;21.80;;;;;;;8.23;84.74;99898.53;5034899;28;20405;-68
2020/12/23 02:40:05;;;;;;;22.08;21.17;;;;;;;8.20;84.66;99883.81;5034465;28;20155;-66
2020/12/23 02:42:31;;;;;;;21.73;20.83;;;;;;;8.19;84.66;99884.72;5034826;28;20045;-67
2020/12/23 02:44:57;;;;;;;22.20;21.30;;;;;;;8.15;84.58;99884.88;5034611;28;20416;-66
2020/12/23 02:47:24;;;;;;;22.27;21.38;;;;;;;8.13;84.66;99877.09;5034754;28;20045;-67
2020/12/23 02:49:50;;;;;;;21.65;20.75;;;;;;;8.12;84.63;99874.53;5034682;28;20051;-67
2020/12/23 02:52:16;;;;;;;19.63;18.83;;;;;;;8.10;84.47;99885.03;5034380;28;20049;-66
2020/12/23 02:54:42;;;;;;;22.17;21.27;;;;;;;8.08;84.51;99889.44;5034516;28;20049;-67
2020/12/23 02:57:09;;;;;;;22.27;21.38;;;;;;;8.05;84.62;99894.78;5034479;28;20091;-67
2020/12/23 02:59:35;;;;;;;21.50;20.60;;;;;;;8.06;84.56;99901.69;5034152;28;20053;-67
2020/12/23 03:02:01;;;;;;;21.67;20.77;;;;;;;8.05;84.61;99894.78;5034206;28;20085;-67
2020/12/23 03:04:27;;;;;;;21.63;20.73;;;;;;;8.06;84.51;99890.41;5034104;28;20497;-67
2020/12/23 03:06:53;;;;;;;20.48;19.67;;;;;;;8.06;84.67;99890.41;5034146;28;20045;-67
2020/12/23 03:09:20;;;;;;;21.00;20.15;;;;;;;8.08;84.69;99894.66;5034306;28;20041;-67
2020/12/23 03:11:46;;;;;;;22.15;21.25;;;;;;;8.07;84.70;99898.19;5034265;28;20045;-67
2020/12/23 03:14:14;;;;;;;22.83;21.92;;;;;;;8.06;84.70;99893.88;5033890;28;20099;-68
2020/12/23 03:16:40;;;;;;;20.83;20.02;;;;;;;8.03;84.57;99895.72;5034185;28;20052;-67
2020/12/23 03:19:06;;;;;;;20.67;19.88;;;;;;;8.02;84.66;99894.88;5034121;28;20053;-69
2020/12/23 03:21:33;;;;;;;21.90;21.00;;;;;;;8.02;84.59;99889.66;5034133;28;20118;-68
2020/12/23 03:23:59;;;;;;;21.25;20.38;;;;;;;8.02;84.69;99899.25;5034242;28;20050;-68
2020/12/23 03:26:25;;;;;;;21.40;20.50;;;;;;;8.02;84.53;99904.47;5033680;28;20521;-68
2020/12/23 03:28:51;;;;;;;22.13;21.23;;;;;;;7.99;84.57;99905.44;5034195;28;20045;-67
2020/12/23 03:31:18;;;;;;;22.92;22.02;;;;;;;8.00;84.59;99911.50;5033824;28;20155;-67
2020/12/23 03:33:45;;;;;;;22.35;21.45;;;;;;;7.97;84.50;99919.44;5034047;28;20049;-67
2020/12/23 03:36:11;;;;;;;22.77;21.88;;;;;;;7.93;84.63;99916.09;5033631;28;20041;-69
2020/12/23 03:38:37;;;;;;;23.08;22.17;;;;;;;7.94;84.70;99923.00;5033766;28;20050;-68
2020/12/23 03:41:03;;;;;;;21.70;20.80;;;;;;;7.93;84.63;99918.69;5033497;28;20451;-67
2020/12/23 03:43:30;;;;;;;23.38;22.48;;;;;;;7.92;84.54;99914.38;5033591;28;20111;-67
2020/12/23 03:45:56;;;;;;;21.70;20.80;;;;;;;7.92;84.64;99924.81;5033630;28;20049;-68
2020/12/23 03:48:23;;;;;;;21.95;21.05;;;;;;;7.87;84.63;99916.25;5033787;28;20053;-67
2020/12/23 03:50:49;;;;;;;20.83;20.00;;;;;;;7.87;84.62;99922.34;5033523;28;20049;-67
2020/12/23 03:53:15;;;;;;;22.17;21.27;;;;;;;7.88;84.68;99918.81;5033505;28;20045;-67
2020/12/23 03:55:41;;;;;;;23.00;22.10;;;;;;;7.89;84.49;99914.44;5033260;28;20057;-68
2020/12/23 03:58:07;;;;;;;22.25;21.35;;;;;;;7.90;84.52;99917.00;5033095;28;20046;-68
2020/12/23 04:00:33;;;;;;;21.25;20.35;;;;;;;7.88;84.54;99923.19;5033249;28;20046;-68
2020/12/23 04:02:59;;;;;;;21.55;20.65;;;;;;;7.85;84.51;99913.69;5033361;28;20048;-67
2020/12/23 04:05:26;;;;;;;20.95;20.13;;;;;;;7.83;84.47;99914.66;5033300;28;20436;-68
2020/12/23 04:07:52;;;;;;;21.08;20.23;;;;;;;7.81;84.42;99926.91;5033139;28;20045;-68
2020/12/23 04:10:18;;;;;;;22.90;22.00;;;;;;;7.82;84.51;99926.00;5032775;28;20068;-68
2020/12/23 04:12:44;;;;;;;22.50;21.60;;;;;;;7.81;84.63;99927.75;5033057;28;20053;-67
2020/12/23 04:15:11;;;;;;;21.52;20.63;;;;;;;7.82;84.51;99923.38;5033093;28;20041;-68
2020/12/23 04:17:38;;;;;;;21.55;20.65;;;;;;;7.80;84.58;99928.66;5032997;28;20090;-67
2020/12/23 04:20:05;;;;;;;20.70;19.90;;;;;;;7.78;84.56;99925.25;5032041;28;20056;-68
2020/12/23 04:22:33;;;;;;;21.08;20.23;;;;;;;7.74;84.52;99930.63;5031192;28;20045;-68
2020/12/23 04:25:00;;;;;;;21.98;21.08;;;;;;;7.73;84.58;99928.91;5032309;28;20052;-68
2020/12/23 04:27:27;;;;;;;21.60;20.70;;;;;;;7.73;84.55;99934.13;5032563;28;20045;-69
2020/12/23 04:29:53;;;;;;;22.90;22.00;;;;;;;7.72;84.60;99937.66;5032540;28;20060;-68
2020/12/23 04:32:19;;;;;;;21.83;20.92;;;;;;;7.69;84.63;99933.34;5032638;28;20103;-67
2020/12/23 04:34:45;;;;;;;21.38;20.48;;;;;;;7.71;84.64;99933.34;5032652;28;20094;-68
2020/12/23 04:37:11;;;;;;;22.58;21.67;;;;;;;7.74;84.66;99935.84;5032536;28;20051;-68
2020/12/23 04:39:38;;;;;;;21.70;20.80;;;;;;;7.73;84.55;99944.56;5032291;28;20504;-68
2020/12/23 04:42:05;;;;;;;21.48;20.58;;;;;;;7.69;84.49;99942.94;5032626;28;20041;-68
2020/12/23 04:44:31;;;;;;;21.58;20.67;;;;;;;7.64;84.61;99936.13;5032440;28;20060;-67
2020/12/23 04:46:58;;;;;;;21.05;20.20;;;;;;;7.59;84.52;99940.63;5032198;28;20057;-68
2020/12/23 04:49:24;;;;;;;23.20;22.30;;;;;;;7.59;84.69;99945.84;5031819;28;20106;-66
2020/12/23 04:51:53;;;;;;;22.00;21.10;;;;;;;7.59;84.55;99951.06;5032193;28;20050;-67
2020/12/23 04:54:20;;;;;;;20.50;19.70;;;;;;;7.59;84.55;99958.88;5032381;28;20095;-67
2020/12/23 04:56:48;;;;;;;22.02;21.13;;;;;;;7.58;84.48;99961.53;5032067;28;20060;-67
2020/12/23 04:59:15;;;;;;;20.40;19.60;;;;;;;7.56;84.26;99959.00;5032359;28;20417;-66
2020/12/23 05:01:41;;;;;;;22.48;21.58;;;;;;;7.54;84.43;99970.38;5032341;28;20041;-67
2020/12/23 05:04:07;;;;;;;21.15;20.27;;;;;;;7.51;84.46;99971.31;5032037;28;20053;-67
2020/12/23 05:06:35;;;;;;;22.80;21.90;;;;;;;7.51;84.66;99989.59;5031935;28;20052;-68
2020/12/23 05:09:02;;;;;;;22.73;21.83;;;;;;;7.47;84.45;99974.91;5032205;28;20456;-68
2020/12/23 05:11:28;;;;;;;21.70;20.80;;;;;;;7.45;84.51;99974.09;5032266;28;20045;-68
2020/12/23 05:13:56;;;;;;;21.60;20.70;;;;;;;7.43;84.49;99978.50;5032378;28;20393;-67
2020/12/23 05:16:23;;;;;;;21.58;20.67;;;;;;;7.43;84.45;99985.47;5032216;28;20053;-67
2020/12/23 05:18:49;;;;;;;22.15;21.25;;;;;;;7.40;84.53;99989.03;5032234;28;20049;-67
2020/12/23 05:21:15;;;;;;;21.45;20.55;;;;;;;7.37;84.48;99996.94;5032171;28;20056;-68
2020/12/23 05:23:43;;;;;;;20.45;19.65;;;;;;;7.34;84.51;99994.44;5032316;28;20045;-67
2020/12/23 05:26:09;;;;;;;22.58;21.67;;;;;;;7.31;84.46;99991.94;5032392;28;20052;-72
2020/12/23 05:28:36;;;;;;;21.45;20.55;;;;;;;7.29;84.52;99999.78;5032358;28;20099;-73
2020/12/23 05:31:04;;;;;;;21.10;20.25;;;;;;;7.27;84.53;100000.72;5032060;28;20072;-73
2020/12/23 05:33:32;;;;;;;21.95;21.05;;;;;;;7.27;84.32;100003.31;5032255;28;20049;-73
2020/12/23 05:36:01;;;;;;;23.20;22.30;;;;;;;7.26;84.58;100005.06;5032382;28;20050;-73
2020/12/23 05:38:28;;;;;;;20.67;19.88;;;;;;;7.27;84.44;99998.09;5031700;28;20054;-74
2020/12/23 05:40:54;;;;;;;21.20;20.33;;;;;;;7.25;84.46;100005.13;5032075;28;20056;-73
2020/12/23 05:43:21;;;;;;;20.83;20.00;;;;;;;7.22;84.40;100000.00;5032047;28;20416;-74
2020/12/23 05:45:47;;;;;;;20.23;19.42;;;;;;;7.18;84.33;100003.59;5031963;28;20060;-74
2020/12/23 05:48:14;;;;;;;21.85;20.95;;;;;;;7.15;84.50;100001.06;5032023;28;20049;-73
2020/12/23 05:50:40;;;;;;;21.67;20.77;;;;;;;7.13;84.61;100005.47;5031981;28;20058;-74
2020/12/23 05:53:11;;;;;;;22.13;21.23;;;;;;;7.12;84.56;100022.03;5031623;28;20049;-74
2020/12/23 05:55:44;;;;;;;24.58;23.58;;;;;;;7.10;84.45;100023.81;5031845;28;20057;-72
2020/12/23 05:58:10;;;;;;;20.75;19.95;;;;;;;7.04;84.36;100023.06;5031752;28;20497;-73
2020/12/23 06:00:37;;;;;;;20.80;20.00;;;;;;;7.04;84.57;100024.81;5034949;28;20057;-71
2020/12/23 06:03:14;;;;;;;23.15;22.25;;;;;;;7.01;84.49;100032.72;5035543;28;20064;-73
2020/12/23 06:05:43;;;;;;;22.40;21.50;;;;;;;7.01;84.44;100028.38;5035461;28;20053;-73
2020/12/23 06:08:09;;;;;;;22.13;21.23;;;;;;;7.01;84.42;100025.75;5034934;28;20405;-73
2020/12/23 06:10:36;;;;;;;22.25;21.35;;;;;;;7.02;84.52;100024.88;5035368;28;20188;-73
2020/12/23 06:13:11;;;;;;;21.67;20.77;;;;;;;7.00;84.45;100016.22;5035310;28;20045;-73
2020/12/23 06:15:41;;;;;;;22.85;21.95;;;;;;;6.98;84.40;100022.38;5035395;28;20056;-72
2020/12/23 06:18:16;;;;;;;22.70;21.80;;;;;;;6.92;84.38;100019.97;5035343;28;20053;-74
2020/12/23 06:20:45;;;;;;;22.65;21.75;;;;;;;6.88;84.44;100024.41;5035131;28;20049;-73
2020/12/23 06:23:25;;;;;;;23.73;22.80;;;;;;;6.87;84.50;100020.09;5035087;28;20103;-74
2020/12/23 06:25:51;;;;;;;23.27;22.38;;;;;;;6.88;84.60;100021.78;5034992;28;20045;-73
2020/12/23 06:28:22;;;;;;;22.30;21.40;;;;;;;6.87;84.57;100025.31;5035060;28;20056;-74
2020/12/23 06:30:51;;;;;;;22.52;21.63;;;;;;;6.87;84.44;100024.41;5035000;28;20518;-73
2020/12/23 06:33:18;;;;;;;21.52;20.63;;;;;;;6.85;84.40;100024.47;5034783;28;20050;-72
2020/12/23 06:35:45;;;;;;;20.30;19.50;;;;;;;6.83;84.35;100026.25;5035054;28;20042;-73
2020/12/23 06:38:19;;;;;;;22.65;21.75;;;;;;;6.79;84.59;100016.81;5034447;28;20057;-73
2020/12/23 06:40:57;;;;;;;22.10;21.20;;;;;;;6.76;84.29;100021.25;5034679;28;20163;-72
2020/12/23 06:43:57;;;;;;;21.52;20.63;;;;;;;6.76;84.62;100027.31;5034383;28;20068;-74
2020/12/23 06:46:23;;;;;;;21.27;20.38;;;;;;;6.74;84.47;100021.28;5034655;28;20056;-74
2020/12/23 06:48:49;;;;;;;23.33;22.42;;;;;;;6.68;84.33;100027.53;5034772;28;20041;-73
2020/12/23 06:51:39;;;;;;;21.83;20.92;;;;;;;6.63;84.53;100025.91;5034639;28;20072;-73
2020/12/23 06:54:05;;;;;;;23.02;22.13;;;;;;;6.57;84.20;100026.09;5034804;28;20053;-73
2020/12/23 06:56:44;;;;;;;22.33;21.42;;;;;;;6.51;84.43;100039.28;5034306;28;20129;-73
2020/12/23 06:59:47;;;;;;;22.67;21.77;;;;;;;6.46;84.43;100047.19;5034275;28;20054;-73
2020/12/23 07:02:14;;;;;;;21.08;20.23;;;;;;;6.37;84.25;100045.66;5033994;28;20046;-73
2020/12/23 07:04:47;;;;;;;20.15;19.35;;;;;;;6.30;84.45;100049.31;5034211;28;20051;-73
2020/12/23 07:07:32;;;;;;;21.52;20.63;;;;;;;6.25;84.61;100051.19;5034023;28;20393;-72
2020/12/23 07:10:11;;;;;;;22.85;21.95;;;;;;;6.21;84.19;100059.94;5033985;28;20055;-73
2020/12/23 07:12:42;;;;;;;21.65;20.75;;;;;;;6.16;84.17;100071.34;5043055;28;20053;-73
2020/12/23 07:15:10;;;;;;;19.42;18.63;;;;;;;6.09;84.16;100081.91;5043657;28;20061;-72
2020/12/23 07:17:39;;;;;;;20.42;19.63;;;;;;;6.03;84.25;100081.16;5042187;28;20053;-73
2020/12/23 07:20:06;;;;;;;19.08;18.27;;;;;;;5.99;84.34;100080.38;5039872;28;20050;-72
2020/12/23 07:22:33;;;;;;;20.90;20.08;;;;;;;5.95;84.23;100083.97;5041411;28;20071;-72
2020/12/23 07:24:59;;;;;;;19.95;19.15;;;;;;;5.90;84.34;100075.41;5041983;28;20397;-68
2020/12/23 07:27:27;;;;;;;20.48;19.67;;;;;;;5.88;84.23;100076.31;5041148;28;20095;-67
2020/12/23 07:29:56;;;;;;;20.23;19.42;;;;;;;5.83;84.30;100081.59;5042290;28;20052;-67
2020/12/23 07:32:26;;;;;;;20.25;19.45;;;;;;;5.81;84.27;100084.22;5043578;28;20396;-67
2020/12/23 07:34:52;;;;;;;21.65;20.75;;;;;;;5.78;84.29;100080.81;5045023;28;20059;-67
2020/12/23 07:37:18;;;;;;;21.27;20.38;;;;;;;5.73;84.16;100086.13;5040649;28;20052;-68
2020/12/23 07:39:48;;;;;;;21.70;20.80;;;;;;;5.67;84.27;100083.69;5040703;28;20048;-68
2020/12/23 07:42:18;;;;;;;21.08;20.20;;;;;;;5.63;84.24;100097.63;5041989;28;20037;-68
2020/12/23 07:44:49;;;;;;;21.95;21.05;;;;;;;5.58;84.40;100088.19;5040925;28;20081;-67
2020/12/23 07:47:21;;;;;;;21.20;20.33;;;;;;;5.57;84.27;100091.69;5039747;28;20156;-67
2020/12/23 07:49:59;;;;;;;21.40;20.50;;;;;;;5.56;84.49;100092.56;5032339;28;20050;-67
2020/12/23 07:52:25;;;;;;;21.63;20.73;;;;;;;5.59;84.48;100095.97;5032395;28;20195;-67
2020/12/23 07:54:51;;;;;;;18.92;18.13;;;;;;;5.58;84.41;100091.66;5032163;28;20045;-67
2020/12/23 07:57:28;;;;;;;19.80;19.00;;;;;;;5.57;84.50;100091.69;5032013;28;20111;-67
2020/12/23 08:00:00;;;;;;;20.63;19.83;;;;;;;5.59;84.50;100100.31;5031632;28;20050;-66
2020/12/23 08:02:26;;;;;;;22.35;21.45;;;;;;;5.60;84.50;100097.66;5031843;28;20369;-66
2020/12/23 08:04:52;;;;;;;20.48;19.67;;;;;;;5.57;84.45;100102.94;5031890;28;20052;-67
2020/12/23 08:07:22;;;;;;;20.10;19.30;;;;;;;5.55;84.25;100102.13;5032087;28;20416;-68
2020/12/23 08:09:48;;;;;;;20.65;19.85;;;;;;;5.56;84.20;100093.44;5031894;28;20516;-68
2020/12/23 08:12:16;;;;;;;21.08;20.20;;;;;;;5.54;84.30;100097.81;5031398;28;20037;-67
2020/12/23 08:14:42;;;;;;;19.50;18.70;;;;;;;5.51;84.53;100100.47;5031735;28;20041;-68
2020/12/23 08:17:08;;;;;;;20.73;19.92;;;;;;;5.49;84.35;100100.50;5031667;28;20140;-67
2020/12/23 08:19:34;;;;;;;20.83;20.00;;;;;;;5.50;84.38;100096.16;5031841;28;20049;-68
2020/12/23 08:22:09;;;;;;;21.80;20.90;;;;;;;5.49;84.43;100107.44;5031301;28;20048;-67
2020/12/23 08:24:36;;;;;;;21.05;20.17;;;;;;;5.50;84.35;100107.41;5030766;28;20068;-68
2020/12/23 08:27:03;;;;;;;21.02;20.17;;;;;;;5.53;84.49;100110.84;5031614;28;20103;-67
2020/12/23 08:29:30;;;;;;;21.45;20.55;;;;;;;5.56;84.59;100114.22;5038204;28;20107;-67
2020/12/23 08:31:56;;;;;;;19.30;18.50;;;;;;;5.62;84.62;100115.84;5050967;28;20462;-68
2020/12/23 08:34:26;;;;;;;21.20;20.30;;;;;;;5.67;84.53;100122.69;5051232;28;20045;-67
2020/12/23 08:36:53;;;;;;;20.98;20.13;;;;;;;5.67;84.52;100117.47;5050949;28;20496;-67
2020/12/23 08:39:23;;;;;;;22.05;21.15;;;;;;;5.69;84.66;100117.44;5050138;28;20057;-67
2020/12/23 08:41:50;;;;;;;21.38;20.48;;;;;;;5.74;84.69;100116.47;5051088;28;20531;-66
2020/12/23 08:44:20;;;;;;;21.05;20.17;;;;;;;5.82;84.74;100124.94;5051140;28;20162;-65
2020/12/23 08:46:47;;;;;;;21.45;20.55;;;;;;;5.91;84.70;100123.09;5051395;28;20110;-65
2020/12/23 08:49:16;;;;;;;20.45;19.65;;;;;;;6.00;84.81;100122.88;5051102;28;20049;-65
2020/12/23 08:51:42;;;;;;;21.38;20.48;;;;;;;6.16;84.74;100124.25;5050555;28;20048;-75
2020/12/23 08:54:13;;;;;;;20.60;19.80;;;;;;;6.35;84.85;100129.91;5050948;28;20488;-75
2020/12/23 08:56:46;;;;;;;20.10;19.30;;;;;;;6.59;84.97;100123.28;5051232;28;20053;-74
2020/12/23 08:59:13;;;;;;;20.75;19.95;;;;;;;6.86;84.94;100127.78;5051160;28;20080;-75
2020/12/23 09:01:39;;;;;;;21.90;21.00;;;;;;;7.12;84.98;100123.69;5050866;28;20496;-76
2020/12/23 09:04:07;;;;;;;22.58;21.67;;;;;;;7.23;84.74;100122.50;5050522;28;20419;-76
2020/12/23 09:06:34;;;;;;;20.35;19.55;;;;;;;7.25;84.50;100122.44;5050964;28;20287;-76
2020/12/23 09:09:22;;;;;;;21.55;20.65;;;;;;;7.18;84.48;100120.91;5051445;28;20056;-77
2020/12/23 09:11:50;;;;;;;21.83;20.92;;;;;;;7.18;84.46;100123.50;5047565;28;20064;-75
2020/12/23 09:14:18;;;;;;;22.30;21.40;;;;;;;7.17;84.49;100122.66;5051027;28;20053;-75
2020/12/23 09:16:59;;;;;;;22.83;21.92;;;;;;;7.17;84.50;100120.06;5050535;28;20049;-75
2020/12/23 09:19:49;;;;;;;22.15;21.25;;;;;;;7.18;84.56;100118.31;5051345;28;20053;-75
2020/12/23 09:22:32;;;;;;;22.35;21.45;;;;;;;7.24;84.49;100118.13;5051914;28;20045;-76
2020/12/23 09:25:15;;;;;;;21.08;20.20;;;;;;;7.28;84.19;100122.34;5051283;28;20049;-75
2020/12/23 09:27:42;;;;;;;22.20;21.30;;;;;;;7.21;84.18;100115.59;5051627;28;20045;-74
2020/12/23 09:30:09;;;;;;;22.13;21.23;;;;;;;7.11;84.30;100121.97;5051829;28;20057;-74
2020/12/23 09:32:49;;;;;;;22.42;21.52;;;;;;;7.07;84.27;100122.94;5051493;28;20361;-74
2020/12/23 09:35:16;;;;;;;21.00;20.17;;;;;;;7.02;84.17;100118.69;5054632;28;20045;-74
2020/12/23 09:37:43;;;;;;;23.08;22.17;;;;;;;6.96;84.18;100118.88;5055808;28;20052;-74
2020/12/23 09:40:10;;;;;;;22.38;21.48;;;;;;;6.91;84.43;100119.88;5055634;28;20048;-73
2020/12/23 09:42:36;;;;;;;22.45;21.55;;;;;;;6.93;84.46;100115.47;5055722;28;20048;-74
2020/12/23 09:45:03;;;;;;;21.52;20.63;;;;;;;6.95;84.41;100118.91;5055398;28;20186;-74
2020/12/23 09:47:30;;;;;;;22.30;21.40;;;;;;;7.04;84.58;100111.69;5055581;28;20052;-73
2020/12/23 09:49:56;;;;;;;22.45;21.55;;;;;;;7.21;84.69;100113.84;5055570;28;20053;-75
2020/12/23 09:52:22;;;;;;;22.23;21.33;;;;;;;7.45;84.60;100107.13;5055323;28;20048;-74
2020/12/23 09:54:48;;;;;;;20.10;19.30;;;;;;;7.64;84.52;100110.06;5055597;28;20131;-75
2020/12/23 09:57:14;;;;;;;21.33;20.42;;;;;;;7.83;84.70;100105.16;5055135;28;20502;-74
2020/12/23 09:59:40;;;;;;;22.92;22.02;;;;;;;7.99;84.58;100108.19;5055271;28;20049;-74
2020/12/23 10:02:06;;;;;;;22.05;21.15;;;;;;;8.10;84.57;100103.47;5055276;28;20049;-75
2020/12/23 10:04:33;;;;;;;22.80;21.90;;;;;;;8.15;84.44;100099.84;5055412;28;20045;-75
2020/12/23 10:06:59;;;;;;;24.05;23.05;;;;;;;8.23;84.38;100097.84;5055058;28;20431;-78
2020/12/23 10:09:25;;;;;;;24.40;23.40;;;;;;;8.26;84.17;100096.88;5055589;28;20056;-74
2020/12/23 10:11:51;;;;;;;23.60;22.70;;;;;;;8.26;84.27;100100.34;5055176;28;20408;-73
2020/12/23 10:14:17;;;;;;;22.65;21.75;;;;;;;8.32;84.26;100104.53;5051282;28;20373;-74
2020/12/23 10:16:43;;;;;;;24.70;23.70;;;;;;;8.34;84.07;100104.53;5054755;28;20049;-74
2020/12/23 10:19:09;;;;;;;22.90;22.00;;;;;;;8.35;84.10;100095.78;5054368;28;20053;-74
2020/12/23 10:21:35;;;;;;;23.00;22.10;;;;;;;8.32;84.01;100101.91;5043187;28;20044;-74
2020/12/23 10:24:01;;;;;;;23.33;22.42;;;;;;;8.33;83.93;100106.25;5044457;28;20463;-74
2020/12/23 10:26:27;;;;;;;24.98;23.98;;;;;;;8.27;83.85;100102.06;5042799;28;20045;-74
2020/12/23 10:28:53;;;;;;;24.60;23.60;;;;;;;8.32;84.05;100101.91;5043448;28;20045;-74
2020/12/23 10:31:19;;;;;;;21.67;20.77;;;;;;;8.40;83.99;100094.75;5043997;28;20128;-74
2020/12/23 10:33:45;;;;;;;24.45;23.45;;;;;;;8.50;84.19;100084.84;5042499;28;20048;-75
2020/12/23 10:36:14;;;;;;;23.45;22.55;;;;;;;8.47;83.73;100079.72;5054917;28;20500;-74
2020/12/23 10:38:41;;;;;;;23.88;22.90;;;;;;;8.51;84.06;100086.53;5052157;28;20045;-73
2020/12/23 10:41:07;;;;;;;23.13;22.23;;;;;;;8.59;83.90;100081.09;5054628;28;20060;-74
2020/12/23 10:43:34;;;;;;;22.08;21.17;;;;;;;8.53;83.79;100084.72;5054266;28;20052;-74
2020/12/23 10:46:00;;;;;;;22.92;22.02;;;;;;;8.43;83.81;100085.94;5053563;28;20053;-74
2020/12/23 10:48:26;;;;;;;23.45;22.55;;;;;;;8.42;83.90;100089.47;5054081;28;20488;-75
2020/12/23 10:50:52;;;;;;;23.73;22.77;;;;;;;8.50;83.98;100087.44;5053961;28;20053;-74
2020/12/23 10:53:18;;;;;;;24.80;23.80;;;;;;;8.57;83.87;100083.75;5054491;28;20053;-74
2020/12/23 10:55:45;;;;;;;23.77;22.83;;;;;;;8.57;83.82;100086.38;5054392;28;20076;-72
2020/12/23 10:58:11;;;;;;;23.20;22.30;;;;;;;8.62;83.99;100076.59;5054334;28;20099;-72
2020/12/23 11:00:38;;;;;;;23.33;22.42;;;;;;;8.76;84.01;100079.63;5046484;28;20175;-74
2020/12/23 11:03:05;;;;;;;22.35;21.45;;;;;;;8.95;83.92;100071.13;5044665;28;20060;-74
2020/12/23 11:05:31;;;;;;;22.23;21.33;;;;;;;9.11;83.98;100067.94;5053778;28;20045;-73
2020/12/23 11:07:57;;;;;;;24.38;23.38;;;;;;;9.24;84.14;100076.22;5044353;28;20073;-74
2020/12/23 11:10:23;;;;;;;24.48;23.48;;;;;;;9.35;83.82;100066.19;5041650;28;20504;-69
2020/12/23 11:12:50;;;;;;;23.42;22.52;;;;;;;9.51;83.78;100070.88;5043866;28;20056;-71
2020/12/23 11:15:16;;;;;;;23.00;22.10;;;;;;;9.73;83.92;100066.56;5041349;28;20050;-71
2020/12/23 11:17:42;;;;;;;26.20;25.20;;;;;;;10.06;83.96;100070.50;5046112;28;20045;-70
2020/12/23 11:20:08;;;;;;;24.02;23.02;;;;;;;10.49;83.64;100068.84;5051520;28;20056;-72
2020/12/23 11:22:34;;;;;;;26.75;25.65;;;;;;;10.92;83.57;100072.28;5034444;28;20041;-71
2020/12/23 11:25:00;;;;;;;24.67;23.67;;;;;;;11.31;83.77;100074.97;5033837;28;20558;-73